VIDPVNKT

Guest
Details From VIDP - Indira Gandhi Intl
To VNKT - Kathmandu Tribhuvan Intl
Flight Number -
Tags Generated
Created
Modified
Stats Distance 441 nm / 817 km
Max Altitude 0 ft / 0 m
Waypoints 3
Social Downloads 1
Likes 0
Share VATSIM

Download

Looking for another format? Having issues loading an existing format? Contact us
Advertisement - Login to hide

Notes

Generated

Route

VIDP KTM56 VNKT

ID Type Via Altitude Latitude Longitude Leg Dist Tot Dist Heading (true) Name
O VIDP APT - 0 ft / 0 m 28.57049˚ 77.08804˚ - 0 nm - -
KTM56 FIX - 0 ft / 0 m 27.68390˚ 85.35196˚ 440 nm 440 nm 95° / 99° -
O VNKT APT - 0 ft / 0 m 27.68381˚ 85.35342˚ 0 nm 440 nm 94° / 94° -

Altitude Profile

Advertisement - Login to hide

Weather


0- 5 10 15 20 25 30 35+ Temperature / ° C

Clouds and Precipitation
Forecast for 2017-12-14 06:00 UTC. Updated an hour ago

Ground ~20,000 ft ~40,000 ft Winds

VIDP

Details ICAO VIDP (DEL)
Name INDIRA GANDHI INTL
Region India
Timezone Asia/Kolkata (UTC+5.5)
Stats Elevation 777 ft / 237 m (AMSL)
Location 28.566496° 77.103090°
Runways 2
Magnetic Variation 1.217° E

METAR

VIDP 140600Z 28006KT 1500 R28/P2000 R29/P2000 BR FEW040 13/10 Q1022 NOSIG

Decode

TAF

TAF VIDP 140500Z 1406/1512 27006KT 1000 BR FEW100 BECMG 1408/1410 32005KT 1500 FU BECMG 1414/1416 0800 MIFG BECMG 1418/1420 0300 FG BECMG 1505/1507 29005KT 0800 MIFG BECMG 1508/1510 1200 FU BR

Decode

Departure Runways

ID Width Length Bearing (true) Bearing (mag) Surface Threshold Offset Overrun Length
09 150 ft / 46 m 9,270 ft / 2,826 m 91.50° 90.28° Asphalt 0 ft / 0 m 195 ft / 59 m
10 150 ft / 46 m 12,488 ft / 3,807 m 104.67° 103.45° Asphalt 0 ft / 0 m 880 ft / 268 m
27 150 ft / 46 m 9,270 ft / 2,826 m 271.52° 270.30° Asphalt 499 ft / 152 m 0 ft / 0 m
28 150 ft / 46 m 12,488 ft / 3,807 m 284.69° 283.47° Asphalt 0 ft / 0 m 470 ft / 143 m

VNKT

Details ICAO VNKT (KTM)
Name Kathmandu Tribhuvan Intl
Region Nepal
Timezone Asia/Kathmandu (UTC+5.8)
Stats Elevation 4,390 ft / 1,338 m (AMSL)
Location 27.696583° 85.359100°
Runways 1
Magnetic Variation 0.492° E

METAR

VNKT 140620Z VRB02KT 5000 HZ FEW015 19/05 Q1021 NOSIG

Decode

TAF

TAF VNKT 140500Z 1406/1506 15003KT 5000 HZ FEW015 BECMG 1407/1409 28008KT 8000 FEW020 BECMG 1413/1414 VRB02KT 7000 FEW015 BECMG 1500/1502 4000 BR FEW010 PROB30 1501/1503 2000 BR BECMG 1504/1505 13005KT 5000 BR/HZ FEW015

Decode

Destination Runways

ID Width Length Bearing (true) Bearing (mag) Surface Threshold Offset Overrun Length
02 148 ft / 45 m 10,017 ft / 3,053 m 21.50° 21.01° Asphalt 0 ft / 0 m 0 ft / 0 m
20 148 ft / 45 m 10,017 ft / 3,053 m 201.51° 201.02° Asphalt 400 ft / 122 m 0 ft / 0 m

Popular Alternatives